sensor_id;sensor_type;location;lat;lon;timestamp;pressure;altitude;pressure_sealevel;temperature;humidity
62926;BME280;55732;52.248;-0.844;2023-01-26T00:00:41;102137.00;;;3.64;89.01
62926;BME280;55732;52.248;-0.844;2023-01-26T00:03:07;102142.61;;;3.61;88.94
62926;BME280;55732;52.248;-0.844;2023-01-26T00:05:36;102141.98;;;3.59;89.01
62926;BME280;55732;52.248;-0.844;2023-01-26T00:08:01;102139.27;;;3.57;88.83
62926;BME280;55732;52.248;-0.844;2023-01-26T00:10:26;102133.96;;;3.55;89.03
62926;BME280;55732;52.248;-0.844;2023-01-26T00:12:52;102138.09;;;3.55;88.84
62926;BME280;55732;52.248;-0.844;2023-01-26T00:15:17;102132.84;;;3.54;88.92
62926;BME280;55732;52.248;-0.844;2023-01-26T00:17:43;102139.03;;;3.52;88.82
62926;BME280;55732;52.248;-0.844;2023-01-26T00:20:09;102135.14;;;3.51;88.59
62926;BME280;55732;52.248;-0.844;2023-01-26T00:22:34;102128.77;;;3.49;88.73
62926;BME280;55732;52.248;-0.844;2023-01-26T00:25:00;102135.99;;;3.48;88.59
62926;BME280;55732;52.248;-0.844;2023-01-26T00:27:25;102132.36;;;3.45;88.56
62926;BME280;55732;52.248;-0.844;2023-01-26T00:29:51;102125.80;;;3.43;88.40
62926;BME280;55732;52.248;-0.844;2023-01-26T00:32:16;102116.33;;;3.41;88.50
62926;BME280;55732;52.248;-0.844;2023-01-26T00:34:42;102117.14;;;3.40;88.31
62926;BME280;55732;52.248;-0.844;2023-01-26T00:37:07;102118.67;;;3.39;88.45
62926;BME280;55732;52.248;-0.844;2023-01-26T00:39:33;102114.11;;;3.39;88.21
62926;BME280;55732;52.248;-0.844;2023-01-26T00:41:58;102117.92;;;3.38;88.31
62926;BME280;55732;52.248;-0.844;2023-01-26T00:44:39;102119.04;;;3.40;88.20
62926;BME280;55732;52.248;-0.844;2023-01-26T00:47:06;102120.94;;;3.39;88.18
62926;BME280;55732;52.248;-0.844;2023-01-26T00:49:33;102128.29;;;3.40;88.07
62926;BME280;55732;52.248;-0.844;2023-01-26T00:51:59;102129.11;;;3.39;87.92
62926;BME280;55732;52.248;-0.844;2023-01-26T00:54:25;102123.20;;;3.36;87.82
62926;BME280;55732;52.248;-0.844;2023-01-26T00:56:51;102120.40;;;3.36;87.93
62926;BME280;55732;52.248;-0.844;2023-01-26T00:59:16;102121.73;;;3.35;87.85
62926;BME280;55732;52.248;-0.844;2023-01-26T01:01:41;102132.31;;;3.34;87.72
62926;BME280;55732;52.248;-0.844;2023-01-26T01:04:07;102137.48;;;3.33;87.66
62926;BME280;55732;52.248;-0.844;2023-01-26T01:06:33;102135.61;;;3.34;87.70
62926;BME280;55732;52.248;-0.844;2023-01-26T01:08:58;102122.94;;;3.35;87.72
62926;BME280;55732;52.248;-0.844;2023-01-26T01:11:24;102121.69;;;3.37;87.64
62926;BME280;55732;52.248;-0.844;2023-01-26T01:13:49;102127.91;;;3.40;87.58
62926;BME280;55732;52.248;-0.844;2023-01-26T01:16:15;102128.73;;;3.42;87.69
62926;BME280;55732;52.248;-0.844;2023-01-26T01:18:41;102129.15;;;3.47;87.53
62926;BME280;55732;52.248;-0.844;2023-01-26T01:21:11;102128.51;;;3.51;87.45
62926;BME280;55732;52.248;-0.844;2023-01-26T01:23:38;102123.39;;;3.53;87.42
62926;BME280;55732;52.248;-0.844;2023-01-26T01:26:04;102122.21;;;3.54;87.36
62926;BME280;55732;52.248;-0.844;2023-01-26T01:28:31;102126.36;;;3.53;87.30
62926;BME280;55732;52.248;-0.844;2023-01-26T01:30:57;102127.13;;;3.51;87.22
62926;BME280;55732;52.248;-0.844;2023-01-26T01:33:22;102130.42;;;3.48;87.00
62926;BME280;55732;52.248;-0.844;2023-01-26T01:35:59;102130.36;;;3.44;87.13
62926;BME280;55732;52.248;-0.844;2023-01-26T01:38:25;102124.41;;;3.39;87.17
62926;BME280;55732;52.248;-0.844;2023-01-26T01:40:52;102128.92;;;3.36;87.21
62926;BME280;55732;52.248;-0.844;2023-01-26T01:43:17;102133.58;;;3.32;87.17
62926;BME280;55732;52.248;-0.844;2023-01-26T01:45:44;102138.48;;;3.29;87.23
62926;BME280;55732;52.248;-0.844;2023-01-26T01:48:19;102138.02;;;3.26;87.15
62926;BME280;55732;52.248;-0.844;2023-01-26T01:50:50;102134.28;;;3.25;87.26
62926;BME280;55732;52.248;-0.844;2023-01-26T01:53:22;102128.98;;;3.24;87.21
62926;BME280;55732;52.248;-0.844;2023-01-26T01:55:54;102132.21;;;3.22;87.30
62926;BME280;55732;52.248;-0.844;2023-01-26T01:58:21;102133.88;;;3.21;87.13
62926;BME280;55732;52.248;-0.844;2023-01-26T02:00:46;102137.40;;;3.18;87.12
62926;BME280;55732;52.248;-0.844;2023-01-26T02:03:12;102140.88;;;3.15;87.29
62926;BME280;55732;52.248;-0.844;2023-01-26T02:05:54;102137.37;;;3.12;87.23
62926;BME280;55732;52.248;-0.844;2023-01-26T02:08:24;102135.81;;;3.09;87.16
62926;BME280;55732;52.248;-0.844;2023-01-26T02:10:53;102137.21;;;3.05;87.32
62926;BME280;55732;52.248;-0.844;2023-01-26T02:13:19;102141.63;;;3.03;87.36
62926;BME280;55732;52.248;-0.844;2023-01-26T02:15:47;102137.89;;;3.02;87.46
62926;BME280;55732;52.248;-0.844;2023-01-26T02:18:13;102137.63;;;3.00;87.34
62926;BME280;55732;52.248;-0.844;2023-01-26T02:20:52;102140.06;;;3.00;87.39
62926;BME280;55732;52.248;-0.844;2023-01-26T02:28:19;102145.43;;;2.97;87.34
62926;BME280;55732;52.248;-0.844;2023-01-26T02:30:45;102141.34;;;2.95;87.38
62926;BME280;55732;52.248;-0.844;2023-01-26T02:33:24;102142.17;;;2.91;87.23
62926;BME280;55732;52.248;-0.844;2023-01-26T02:35:50;102146.10;;;2.86;87.30
62926;BME280;55732;52.248;-0.844;2023-01-26T02:38:18;102151.55;;;2.81;87.24
62926;BME280;55732;52.248;-0.844;2023-01-26T02:40:54;102152.58;;;2.78;87.42
62926;BME280;55732;52.248;-0.844;2023-01-26T02:43:23;102149.45;;;2.75;87.47
62926;BME280;55732;52.248;-0.844;2023-01-26T02:45:50;102140.41;;;2.65;87.59
62926;BME280;55732;52.248;-0.844;2023-01-26T02:48:15;102147.88;;;2.72;87.56
62926;BME280;55732;52.248;-0.844;2023-01-26T02:51:01;102148.41;;;2.71;87.80
62926;BME280;55732;52.248;-0.844;2023-01-26T02:53:27;102152.05;;;2.71;87.91
62926;BME280;55732;52.248;-0.844;2023-01-26T02:55:52;102151.20;;;2.72;87.60
62926;BME280;55732;52.248;-0.844;2023-01-26T02:58:18;102155.02;;;2.72;87.84
62926;BME280;55732;52.248;-0.844;2023-01-26T03:00:43;102156.48;;;2.73;87.69
62926;BME280;55732;52.248;-0.844;2023-01-26T03:03:18;102161.09;;;2.74;87.79
62926;BME280;55732;52.248;-0.844;2023-01-26T03:05:45;102162.21;;;2.73;87.71
62926;BME280;55732;52.248;-0.844;2023-01-26T03:08:11;102161.46;;;2.72;87.65
62926;BME280;55732;52.248;-0.844;2023-01-26T03:10:36;102158.26;;;2.70;87.71
62926;BME280;55732;52.248;-0.844;2023-01-26T03:13:02;102157.40;;;2.67;87.65
62926;BME280;55732;52.248;-0.844;2023-01-26T03:15:28;102162.83;;;2.65;87.68
62926;BME280;55732;52.248;-0.844;2023-01-26T03:18:18;102162.34;;;2.63;87.73
62926;BME280;55732;52.248;-0.844;2023-01-26T03:21:13;102167.11;;;2.61;87.77
62926;BME280;55732;52.248;-0.844;2023-01-26T03:23:58;102175.23;;;2.60;87.91
62926;BME280;55732;52.248;-0.844;2023-01-26T03:26:42;102175.04;;;2.60;87.95
62926;BME280;55732;52.248;-0.844;2023-01-26T03:29:27;102173.20;;;2.61;88.06
62926;BME280;55732;52.248;-0.844;2023-01-26T03:31:53;102177.25;;;2.62;88.04
62926;BME280;55732;52.248;-0.844;2023-01-26T03:34:19;102180.14;;;2.64;88.02
62926;BME280;55732;52.248;-0.844;2023-01-26T03:36:45;102179.27;;;2.64;87.93
62926;BME280;55732;52.248;-0.844;2023-01-26T03:39:11;102172.86;;;2.64;88.00
62926;BME280;55732;52.248;-0.844;2023-01-26T03:41:57;102171.58;;;2.63;88.03
62926;BME280;55732;52.248;-0.844;2023-01-26T03:44:42;102171.77;;;2.61;87.86
62926;BME280;55732;52.248;-0.844;2023-01-26T03:47:26;102176.00;;;2.58;87.92
62926;BME280;55732;52.248;-0.844;2023-01-26T03:50:10;102173.89;;;2.55;87.96
62926;BME280;55732;52.248;-0.844;2023-01-26T03:52:55;102168.98;;;2.51;87.91
62926;BME280;55732;52.248;-0.844;2023-01-26T03:55:39;102169.20;;;2.49;88.01
62926;BME280;55732;52.248;-0.844;2023-01-26T03:58:23;102169.86;;;2.48;88.15
62926;BME280;55732;52.248;-0.844;2023-01-26T04:00:49;102170.50;;;2.47;88.16
62926;BME280;55732;52.248;-0.844;2023-01-26T04:03:15;102167.35;;;2.47;88.20
62926;BME280;55732;52.248;-0.844;2023-01-26T04:05:59;102168.95;;;2.47;88.37
62926;BME280;55732;52.248;-0.844;2023-01-26T04:08:45;102173.15;;;2.48;88.15
62926;BME280;55732;52.248;-0.844;2023-01-26T04:11:11;102172.62;;;2.48;88.30
62926;BME280;55732;52.248;-0.844;2023-01-26T04:13:37;102174.52;;;2.47;88.27
62926;BME280;55732;52.248;-0.844;2023-01-26T04:16:21;102181.25;;;2.47;88.26
62926;BME280;55732;52.248;-0.844;2023-01-26T04:19:05;102187.71;;;2.44;88.15
62926;BME280;55732;52.248;-0.844;2023-01-26T04:21:50;102191.85;;;2.41;88.02
62926;BME280;55732;52.248;-0.844;2023-01-26T04:24:15;102184.33;;;2.37;88.19
62926;BME280;55732;52.248;-0.844;2023-01-26T04:26:42;102187.69;;;2.35;88.17
62926;BME280;55732;52.248;-0.844;2023-01-26T04:29:09;102193.55;;;2.34;88.12
62926;BME280;55732;52.248;-0.844;2023-01-26T04:31:36;102196.11;;;2.33;88.32
62926;BME280;55732;52.248;-0.844;2023-01-26T04:34:04;102194.70;;;2.33;88.40
62926;BME280;55732;52.248;-0.844;2023-01-26T04:36:31;102199.05;;;2.33;88.61
62926;BME280;55732;52.248;-0.844;2023-01-26T04:38:56;102203.06;;;2.33;88.55
62926;BME280;55732;52.248;-0.844;2023-01-26T04:41:22;102202.26;;;2.34;88.65
62926;BME280;55732;52.248;-0.844;2023-01-26T04:43:48;102196.44;;;2.36;88.68
62926;BME280;55732;52.248;-0.844;2023-01-26T04:46:14;102199.23;;;2.39;88.64
62926;BME280;55732;52.248;-0.844;2023-01-26T04:48:40;102200.08;;;2.42;88.69
62926;BME280;55732;52.248;-0.844;2023-01-26T04:51:11;102204.98;;;2.45;88.65
62926;BME280;55732;52.248;-0.844;2023-01-26T04:53:36;102203.76;;;2.48;88.59
62926;BME280;55732;52.248;-0.844;2023-01-26T04:56:02;102203.95;;;2.51;88.58
62926;BME280;55732;52.248;-0.844;2023-01-26T04:58:28;102207.81;;;2.55;88.56
62926;BME280;55732;52.248;-0.844;2023-01-26T05:00:55;102211.16;;;2.59;88.51
62926;BME280;55732;52.248;-0.844;2023-01-26T05:03:22;102207.50;;;2.62;88.52
62926;BME280;55732;52.248;-0.844;2023-01-26T05:05:48;102207.77;;;2.67;88.33
62926;BME280;55732;52.248;-0.844;2023-01-26T05:08:16;102211.14;;;2.71;88.38
62926;BME280;55732;52.248;-0.844;2023-01-26T05:10:41;102202.98;;;2.74;88.41
62926;BME280;55732;52.248;-0.844;2023-01-26T05:13:07;102199.18;;;2.80;88.50
62926;BME280;55732;52.248;-0.844;2023-01-26T05:15:33;102194.73;;;2.85;88.37
62926;BME280;55732;52.248;-0.844;2023-01-26T05:17:59;102195.33;;;2.89;88.21
62926;BME280;55732;52.248;-0.844;2023-01-26T05:20:25;102195.58;;;2.94;88.16
62926;BME280;55732;52.248;-0.844;2023-01-26T05:22:50;102200.12;;;2.98;88.05
62926;BME280;55732;52.248;-0.844;2023-01-26T05:25:16;102199.44;;;3.01;88.13
62926;BME280;55732;52.248;-0.844;2023-01-26T05:27:41;102205.16;;;3.04;88.03
62926;BME280;55732;52.248;-0.844;2023-01-26T05:30:07;102207.92;;;3.07;87.99
62926;BME280;55732;52.248;-0.844;2023-01-26T05:32:33;102208.64;;;3.07;87.98
62926;BME280;55732;52.248;-0.844;2023-01-26T05:34:58;102206.47;;;3.09;87.83
62926;BME280;55732;52.248;-0.844;2023-01-26T05:37:25;102208.04;;;3.12;87.87
62926;BME280;55732;52.248;-0.844;2023-01-26T05:39:50;102211.29;;;3.14;87.75
62926;BME280;55732;52.248;-0.844;2023-01-26T05:42:16;102212.34;;;3.17;87.86
62926;BME280;55732;52.248;-0.844;2023-01-26T05:44:42;102209.89;;;3.20;87.80
62926;BME280;55732;52.248;-0.844;2023-01-26T05:47:07;102212.38;;;3.24;87.68
62926;BME280;55732;52.248;-0.844;2023-01-26T05:49:33;102212.86;;;3.26;87.68
62926;BME280;55732;52.248;-0.844;2023-01-26T05:51:59;102218.41;;;3.29;87.78
62926;BME280;55732;52.248;-0.844;2023-01-26T05:54:24;102216.42;;;3.31;87.52
62926;BME280;55732;52.248;-0.844;2023-01-26T05:56:49;102212.36;;;3.34;87.64
62926;BME280;55732;52.248;-0.844;2023-01-26T05:59:17;102212.60;;;3.35;87.51
62926;BME280;55732;52.248;-0.844;2023-01-26T06:01:43;102213.94;;;3.37;87.48
62926;BME280;55732;52.248;-0.844;2023-01-26T06:04:08;102221.70;;;3.39;87.48
62926;BME280;55732;52.248;-0.844;2023-01-26T06:06:33;102220.73;;;3.40;87.39
62926;BME280;55732;52.248;-0.844;2023-01-26T06:08:59;102230.92;;;3.42;87.41
62926;BME280;55732;52.248;-0.844;2023-01-26T06:11:24;102229.98;;;3.44;87.44
62926;BME280;55732;52.248;-0.844;2023-01-26T06:13:50;102230.13;;;3.47;87.44
62926;BME280;55732;52.248;-0.844;2023-01-26T06:16:15;102227.80;;;3.48;87.33
62926;BME280;55732;52.248;-0.844;2023-01-26T06:18:41;102232.31;;;3.51;87.31
62926;BME280;55732;52.248;-0.844;2023-01-26T06:21:06;102238.56;;;3.54;87.30
62926;BME280;55732;52.248;-0.844;2023-01-26T06:23:32;102241.16;;;3.57;87.14
62926;BME280;55732;52.248;-0.844;2023-01-26T06:26:01;102243.55;;;3.59;86.96
62926;BME280;55732;52.248;-0.844;2023-01-26T06:28:27;102245.93;;;3.61;86.98
62926;BME280;55732;52.248;-0.844;2023-01-26T06:31:02;102250.70;;;3.63;86.88
62926;BME280;55732;52.248;-0.844;2023-01-26T06:33:30;102248.10;;;3.60;86.92
62926;BME280;55732;52.248;-0.844;2023-01-26T06:35:55;102249.33;;;3.60;87.05
62926;BME280;55732;52.248;-0.844;2023-01-26T06:38:21;102258.10;;;3.65;86.97
62926;BME280;55732;52.248;-0.844;2023-01-26T06:40:46;102255.65;;;3.64;86.94
62926;BME280;55732;52.248;-0.844;2023-01-26T06:43:12;102254.46;;;3.65;86.80
62926;BME280;55732;52.248;-0.844;2023-01-26T06:45:37;102246.14;;;3.66;86.82
62926;BME280;55732;52.248;-0.844;2023-01-26T06:48:03;102244.62;;;3.67;86.94
62926;BME280;55732;52.248;-0.844;2023-01-26T06:50:31;102251.23;;;3.67;86.99
62926;BME280;55732;52.248;-0.844;2023-01-26T06:53:03;102258.09;;;3.68;86.95
62926;BME280;55732;52.248;-0.844;2023-01-26T06:55:40;102268.52;;;3.71;87.02
62926;BME280;55732;52.248;-0.844;2023-01-26T06:58:06;102268.52;;;3.74;86.79
62926;BME280;55732;52.248;-0.844;2023-01-26T07:00:31;102272.64;;;3.76;86.91
62926;BME280;55732;52.248;-0.844;2023-01-26T07:02:56;102279.08;;;3.76;86.86
62926;BME280;55732;52.248;-0.844;2023-01-26T07:05:22;102289.00;;;3.79;86.84
62926;BME280;55732;52.248;-0.844;2023-01-26T07:07:47;102284.70;;;3.80;86.59
62926;BME280;55732;52.248;-0.844;2023-01-26T07:10:12;102284.20;;;3.81;86.52
62926;BME280;55732;52.248;-0.844;2023-01-26T07:12:43;102283.44;;;3.80;86.56
62926;BME280;55732;52.248;-0.844;2023-01-26T07:15:10;102278.81;;;3.77;86.47
62926;BME280;55732;52.248;-0.844;2023-01-26T07:17:37;102284.48;;;3.76;86.54
62926;BME280;55732;52.248;-0.844;2023-01-26T07:20:03;102276.09;;;3.75;86.63
62926;BME280;55732;52.248;-0.844;2023-01-26T07:22:28;102280.23;;;3.75;87.05
62926;BME280;55732;52.248;-0.844;2023-01-26T07:24:54;102286.16;;;3.72;87.50
62926;BME280;55732;52.248;-0.844;2023-01-26T07:27:19;102283.79;;;3.73;87.75
62926;BME280;55732;52.248;-0.844;2023-01-26T07:29:44;102285.13;;;3.75;88.09
62926;BME280;55732;52.248;-0.844;2023-01-26T07:32:11;102283.39;;;3.79;88.34
62926;BME280;55732;52.248;-0.844;2023-01-26T07:34:36;102281.95;;;3.81;88.28
62926;BME280;55732;52.248;-0.844;2023-01-26T07:37:02;102282.70;;;3.82;88.39
62926;BME280;55732;52.248;-0.844;2023-01-26T07:39:29;102275.77;;;3.82;88.52
62926;BME280;55732;52.248;-0.844;2023-01-26T07:41:54;102282.92;;;3.83;88.58
62926;BME280;55732;52.248;-0.844;2023-01-26T07:44:20;102286.81;;;3.84;88.79
62926;BME280;55732;52.248;-0.844;2023-01-26T07:46:45;102290.71;;;3.85;88.93
62926;BME280;55732;52.248;-0.844;2023-01-26T07:49:11;102295.81;;;3.86;88.81
62926;BME280;55732;52.248;-0.844;2023-01-26T07:51:37;102294.95;;;3.86;88.94
62926;BME280;55732;52.248;-0.844;2023-01-26T07:54:04;102295.73;;;3.87;88.97
62926;BME280;55732;52.248;-0.844;2023-01-26T07:56:30;102293.34;;;3.88;88.88
62926;BME280;55732;52.248;-0.844;2023-01-26T07:58:56;102287.08;;;3.89;89.04
62926;BME280;55732;52.248;-0.844;2023-01-26T08:01:21;102284.83;;;3.92;88.91
62926;BME280;55732;52.248;-0.844;2023-01-26T08:03:49;102283.48;;;3.93;89.06
62926;BME280;55732;52.248;-0.844;2023-01-26T08:06:15;102279.73;;;3.95;88.82
62926;BME280;55732;52.248;-0.844;2023-01-26T08:08:43;102286.86;;;3.97;88.91
62926;BME280;55732;52.248;-0.844;2023-01-26T08:11:10;102288.13;;;4.02;88.89
62926;BME280;55732;52.248;-0.844;2023-01-26T08:13:36;102292.05;;;4.07;88.90
62926;BME280;55732;52.248;-0.844;2023-01-26T08:16:07;102292.40;;;4.13;88.65
62926;BME280;55732;52.248;-0.844;2023-01-26T08:18:40;102291.34;;;4.20;88.61
62926;BME280;55732;52.248;-0.844;2023-01-26T08:21:06;102286.03;;;4.25;88.51
62926;BME280;55732;52.248;-0.844;2023-01-26T08:23:31;102286.83;;;4.30;88.43
62926;BME280;55732;52.248;-0.844;2023-01-26T08:26:05;102283.77;;;4.35;88.36
62926;BME280;55732;52.248;-0.844;2023-01-26T08:28:31;102284.27;;;4.42;88.51
62926;BME280;55732;52.248;-0.844;2023-01-26T08:31:13;102288.17;;;4.50;88.59
62926;BME280;55732;52.248;-0.844;2023-01-26T08:33:41;102292.83;;;4.59;88.34
62926;BME280;55732;52.248;-0.844;2023-01-26T08:36:10;102291.75;;;4.65;88.12
62926;BME280;55732;52.248;-0.844;2023-01-26T08:38:36;102289.70;;;4.73;88.13
62926;BME280;55732;52.248;-0.844;2023-01-26T08:41:02;102284.58;;;4.86;88.06
62926;BME280;55732;52.248;-0.844;2023-01-26T08:43:28;102291.52;;;4.92;87.75
62926;BME280;55732;52.248;-0.844;2023-01-26T08:45:54;102290.58;;;4.94;87.79
62926;BME280;55732;52.248;-0.844;2023-01-26T08:48:19;102296.42;;;5.00;87.57
62926;BME280;55732;52.248;-0.844;2023-01-26T08:50:45;102298.04;;;5.08;87.32
62926;BME280;55732;52.248;-0.844;2023-01-26T08:53:11;102302.77;;;5.12;87.25
62926;BME280;55732;52.248;-0.844;2023-01-26T08:55:36;102309.02;;;5.15;87.01
62926;BME280;55732;52.248;-0.844;2023-01-26T08:58:02;102312.27;;;5.17;87.21
62926;BME280;55732;52.248;-0.844;2023-01-26T09:00:28;102310.84;;;5.16;87.11
62926;BME280;55732;52.248;-0.844;2023-01-26T09:02:59;102312.79;;;5.13;87.15
62926;BME280;55732;52.248;-0.844;2023-01-26T09:05:24;102319.89;;;5.08;87.23
62926;BME280;55732;52.248;-0.844;2023-01-26T09:07:50;102314.83;;;5.05;87.24
62926;BME280;55732;52.248;-0.844;2023-01-26T09:10:15;102327.45;;;5.06;87.29
62926;BME280;55732;52.248;-0.844;2023-01-26T09:12:41;102325.71;;;5.06;87.24
62926;BME280;55732;52.248;-0.844;2023-01-26T09:15:07;102324.70;;;5.10;87.19
62926;BME280;55732;52.248;-0.844;2023-01-26T09:17:33;102327.34;;;5.18;87.29
62926;BME280;55732;52.248;-0.844;2023-01-26T09:19:58;102323.31;;;5.29;86.96
62926;BME280;55732;52.248;-0.844;2023-01-26T09:22:24;102320.34;;;5.36;86.91
62926;BME280;55732;52.248;-0.844;2023-01-26T09:24:49;102319.27;;;5.46;86.67
62926;BME280;55732;52.248;-0.844;2023-01-26T09:27:14;102315.39;;;5.57;86.60
62926;BME280;55732;52.248;-0.844;2023-01-26T09:29:40;102315.98;;;5.65;86.34
62926;BME280;55732;52.248;-0.844;2023-01-26T09:32:05;102318.74;;;5.69;86.17
62926;BME280;55732;52.248;-0.844;2023-01-26T09:34:30;102317.75;;;5.65;86.14
62926;BME280;55732;52.248;-0.844;2023-01-26T09:36:56;102319.46;;;5.61;86.11
62926;BME280;55732;52.248;-0.844;2023-01-26T09:39:21;102320.60;;;5.56;86.13
62926;BME280;55732;52.248;-0.844;2023-01-26T09:42:28;102320.15;;;5.54;86.19
62926;BME280;55732;52.248;-0.844;2023-01-26T09:44:51;102329.66;;;5.55;86.12
62926;BME280;55732;52.248;-0.844;2023-01-26T09:50:17;102332.28;;;5.63;86.13
62926;BME280;55732;52.248;-0.844;2023-01-26T09:52:56;102339.70;;;5.68;86.12
62926;BME280;55732;52.248;-0.844;2023-01-26T09:55:23;102340.02;;;5.71;86.16
62926;BME280;55732;52.248;-0.844;2023-01-26T09:57:58;102340.41;;;5.75;86.09
62926;BME280;55732;52.248;-0.844;2023-01-26T10:00:28;102337.59;;;5.79;85.95
62926;BME280;55732;52.248;-0.844;2023-01-26T10:03:27;102339.99;;;5.86;86.00
62926;BME280;55732;52.248;-0.844;2023-01-26T10:08:24;102346.31;;;5.97;85.84
62926;BME280;55732;52.248;-0.844;2023-01-26T10:11:00;102342.22;;;6.11;85.52
62926;BME280;55732;52.248;-0.844;2023-01-26T10:13:28;102342.88;;;6.18;85.36
62926;BME280;55732;52.248;-0.844;2023-01-26T10:16:02;102341.84;;;6.18;85.53
62926;BME280;55732;52.248;-0.844;2023-01-26T10:18:32;102335.06;;;6.23;85.37
62926;BME280;55732;52.248;-0.844;2023-01-26T10:21:01;102341.40;;;6.31;85.19
62926;BME280;55732;52.248;-0.844;2023-01-26T10:23:32;102345.13;;;6.40;85.14
62926;BME280;55732;52.248;-0.844;2023-01-26T10:26:11;102347.40;;;6.44;85.11
62926;BME280;55732;52.248;-0.844;2023-01-26T10:28:40;102349.86;;;6.48;84.69
62926;BME280;55732;52.248;-0.844;2023-01-26T10:31:14;102347.23;;;6.48;84.50
62926;BME280;55732;52.248;-0.844;2023-01-26T10:33:47;102346.70;;;6.48;84.86
62926;BME280;55732;52.248;-0.844;2023-01-26T10:36:14;102350.73;;;6.52;84.84
62926;BME280;55732;52.248;-0.844;2023-01-26T10:38:41;102348.80;;;6.61;84.73
62926;BME280;55732;52.248;-0.844;2023-01-26T10:43:58;102346.45;;;6.71;84.33
62926;BME280;55732;52.248;-0.844;2023-01-26T10:48:57;102348.20;;;6.71;84.14
62926;BME280;55732;52.248;-0.844;2023-01-26T10:51:29;102351.55;;;6.76;84.27
62926;BME280;55732;52.248;-0.844;2023-01-26T10:54:16;102354.24;;;6.81;84.26
62926;BME280;55732;52.248;-0.844;2023-01-26T10:56:43;102351.59;;;6.89;84.40
62926;BME280;55732;52.248;-0.844;2023-01-26T10:59:12;102348.05;;;6.97;84.28
62926;BME280;55732;52.248;-0.844;2023-01-26T11:02:17;102351.30;;;7.03;84.40
62926;BME280;55732;52.248;-0.844;2023-01-26T11:05:14;102353.61;;;7.12;84.43
62926;BME280;55732;52.248;-0.844;2023-01-26T11:07:45;102355.20;;;7.21;84.20
62926;BME280;55732;52.248;-0.844;2023-01-26T11:12:50;102349.48;;;7.32;83.86
62926;BME280;55732;52.248;-0.844;2023-01-26T11:15:24;102353.04;;;7.37;83.80
62926;BME280;55732;52.248;-0.844;2023-01-26T11:17:54;102352.77;;;7.43;83.77
62926;BME280;55732;52.248;-0.844;2023-01-26T11:38:25;102343.54;;;7.76;82.86
62926;BME280;55732;52.248;-0.844;2023-01-26T11:41:25;102343.95;;;7.73;82.80
62926;BME280;55732;52.248;-0.844;2023-01-26T11:49:10;102342.24;;;7.61;82.83
62926;BME280;55732;52.248;-0.844;2023-01-26T11:52:13;102343.92;;;7.63;82.96
62926;BME280;55732;52.248;-0.844;2023-01-26T11:57:46;102345.79;;;7.75;83.11
62926;BME280;55732;52.248;-0.844;2023-01-26T12:00:23;102346.89;;;7.76;82.73
62926;BME280;55732;52.248;-0.844;2023-01-26T12:03:00;102339.64;;;7.71;82.85
62926;BME280;55732;52.248;-0.844;2023-01-26T12:05:49;102342.54;;;7.69;82.92
62926;BME280;55732;52.248;-0.844;2023-01-26T12:08:30;102343.44;;;7.69;82.47
62926;BME280;55732;52.248;-0.844;2023-01-26T12:11:36;102342.58;;;7.65;82.62
62926;BME280;55732;52.248;-0.844;2023-01-26T12:14:26;102340.08;;;7.64;82.57
62926;BME280;55732;52.248;-0.844;2023-01-26T12:19:44;102334.77;;;7.53;83.03
62926;BME280;55732;52.248;-0.844;2023-01-26T12:22:18;102337.39;;;7.49;83.16
62926;BME280;55732;52.248;-0.844;2023-01-26T12:24:50;102343.33;;;7.48;83.28
62926;BME280;55732;52.248;-0.844;2023-01-26T12:27:25;102346.45;;;7.43;83.18
62926;BME280;55732;52.248;-0.844;2023-01-26T12:30:31;102346.34;;;7.40;83.45
62926;BME280;55732;52.248;-0.844;2023-01-26T12:33:00;102352.06;;;7.39;83.85
62926;BME280;55732;52.248;-0.844;2023-01-26T12:38:41;102347.66;;;7.30;84.57
62926;BME280;55732;52.248;-0.844;2023-01-26T12:46:37;102339.53;;;7.37;84.56
62926;BME280;55732;52.248;-0.844;2023-01-26T12:49:12;102337.46;;;7.42;84.49
62926;BME280;55732;52.248;-0.844;2023-01-26T12:51:48;102325.63;;;7.48;84.31
62926;BME280;55732;52.248;-0.844;2023-01-26T12:54:53;102326.04;;;7.63;84.21
62926;BME280;55732;52.248;-0.844;2023-01-26T12:57:17;102324.02;;;7.79;83.65
62926;BME280;55732;52.248;-0.844;2023-01-26T12:59:44;102317.92;;;7.81;83.53
62926;BME280;55732;52.248;-0.844;2023-01-26T13:04:47;102322.91;;;7.77;83.43
62926;BME280;55732;52.248;-0.844;2023-01-26T13:15:29;102330.56;;;7.94;82.68
62926;BME280;55732;52.248;-0.844;2023-01-26T13:18:00;102328.45;;;7.98;82.34
62926;BME280;55732;52.248;-0.844;2023-01-26T13:20:42;102324.77;;;8.04;82.12
62926;BME280;55732;52.248;-0.844;2023-01-26T13:28:40;102314.30;;;8.15;81.69
62926;BME280;55732;52.248;-0.844;2023-01-26T13:31:06;102310.79;;;8.15;81.58
62926;BME280;55732;52.248;-0.844;2023-01-26T13:33:33;102312.14;;;8.18;81.54
62926;BME280;55732;52.248;-0.844;2023-01-26T13:36:02;102306.98;;;8.17;81.24
62926;BME280;55732;52.248;-0.844;2023-01-26T13:38:38;102311.84;;;8.10;81.45
62926;BME280;55732;52.248;-0.844;2023-01-26T13:41:16;102310.83;;;8.07;81.43
62926;BME280;55732;52.248;-0.844;2023-01-26T13:43:48;102317.16;;;8.07;81.46
62926;BME280;55732;52.248;-0.844;2023-01-26T13:46:22;102322.79;;;8.12;81.21
62926;BME280;55732;52.248;-0.844;2023-01-26T13:48:50;102319.40;;;8.25;81.25
62926;BME280;55732;52.248;-0.844;2023-01-26T13:51:23;102316.40;;;8.29;81.29
62926;BME280;55732;52.248;-0.844;2023-01-26T13:56:24;102312.25;;;8.50;80.43
62926;BME280;55732;52.248;-0.844;2023-01-26T13:58:51;102319.71;;;8.57;79.97
62926;BME280;55732;52.248;-0.844;2023-01-26T14:01:17;102320.20;;;8.61;79.60
62926;BME280;55732;52.248;-0.844;2023-01-26T14:03:43;102317.69;;;8.59;79.73
62926;BME280;55732;52.248;-0.844;2023-01-26T14:06:16;102319.61;;;8.54;79.68
62926;BME280;55732;52.248;-0.844;2023-01-26T14:08:54;102320.45;;;8.44;79.83
62926;BME280;55732;52.248;-0.844;2023-01-26T14:11:25;102323.81;;;8.30;80.30
62926;BME280;55732;52.248;-0.844;2023-01-26T14:13:53;102334.06;;;8.13;80.30
62926;BME280;55732;52.248;-0.844;2023-01-26T14:16:32;102339.30;;;7.89;81.18
62926;BME280;55732;52.248;-0.844;2023-01-26T14:21:30;102329.70;;;7.53;82.71